AKU441 NZCH-NZAA
Flight info
| Callsign | AKU441 |
|---|---|
| Flight time | 1h 10m |
| Altitude | 39000 |
| Route | GLENN Y175 OMKUN Y655 POKOM Q277 DAVEE |
| Aircraft | A339/H-SADE1E2E3GHIJ3J5M1P2RWXY/LB2D1 |
Departure
| Time | 2026-05-08 07:06 |
|---|---|
| Airport | Christchurch International Airport (NZCH) |
Arrival
| Time | 2026-05-08 08:17 |
|---|---|
| Airport | Auckland International Airport (NZAA) |
| Time | Latitude | Longitude | Altitude | Speed | Heading |
|---|---|---|---|---|---|
| 2026-05-08 06:48 | -43.48627 | 172.54070 | 115 ft | 0 kts | 206° |
| 2026-05-08 06:56 | -43.48623 | 172.54073 | 115 ft | 2 kts | 206° |
| 2026-05-08 06:56 | -43.48617 | 172.54077 | 110 ft | 0 kts | 206° |
| 2026-05-08 06:56 | -43.48609 | 172.54082 | 110 ft | 3 kts | 206° |
| 2026-05-08 06:57 | -43.48595 | 172.54092 | 110 ft | 0 kts | 207° |
| 2026-05-08 06:57 | -43.48580 | 172.54101 | 110 ft | 3 kts | 230° |
| 2026-05-08 06:57 | -43.48565 | 172.54141 | 110 ft | 5 kts | 278° |
| 2026-05-08 06:57 | -43.48572 | 172.54170 | 111 ft | 3 kts | 302° |
| 2026-05-08 06:58 | -43.48577 | 172.54181 | 112 ft | 0 kts | 309° |
| 2026-05-08 06:59 | -43.48573 | 172.54176 | 111 ft | 6 kts | 313° |
| 2026-05-08 06:59 | -43.48527 | 172.54102 | 110 ft | 12 kts | 308° |
| 2026-05-08 07:00 | -43.48524 | 172.53993 | 110 ft | 12 kts | 246° |
| 2026-05-08 07:00 | -43.48583 | 172.53906 | 110 ft | 13 kts | 221° |
| 2026-05-08 07:00 | -43.48655 | 172.53821 | 112 ft | 15 kts | 220° |
| 2026-05-08 07:00 | -43.48738 | 172.53726 | 110 ft | 16 kts | 219° |
| 2026-05-08 07:01 | -43.48829 | 172.53620 | 112 ft | 18 kts | 220° |
| 2026-05-08 07:01 | -43.48932 | 172.53514 | 112 ft | 19 kts | 217° |
| 2026-05-08 07:01 | -43.49030 | 172.53404 | 113 ft | 19 kts | 219° |
| 2026-05-08 07:01 | -43.49136 | 172.53281 | 116 ft | 20 kts | 220° |
| 2026-05-08 07:02 | -43.49241 | 172.53158 | 118 ft | 20 kts | 219° |
| 2026-05-08 07:02 | -43.49344 | 172.53040 | 126 ft | 18 kts | 220° |
| 2026-05-08 07:02 | -43.49441 | 172.52928 | 127 ft | 18 kts | 220° |
| 2026-05-08 07:02 | -43.49537 | 172.52816 | 125 ft | 18 kts | 220° |
| 2026-05-08 07:03 | -43.49637 | 172.52699 | 125 ft | 20 kts | 220° |
| 2026-05-08 07:03 | -43.49747 | 172.52572 | 129 ft | 15 kts | 220° |
| 2026-05-08 07:03 | -43.49760 | 172.52557 | 129 ft | 4 kts | 220° |
| 2026-05-08 07:03 | -43.49790 | 172.52492 | 128 ft | 11 kts | 254° |
| 2026-05-08 07:04 | -43.49790 | 172.52350 | 126 ft | 17 kts | 274° |
| 2026-05-08 07:04 | -43.49739 | 172.52258 | 127 ft | 13 kts | 351° |
| 2026-05-08 07:04 | -43.49678 | 172.52309 | 128 ft | 9 kts | 38° |
| 2026-05-08 07:04 | -43.49675 | 172.52312 | 128 ft | 0 kts | 39° |
| 2026-05-08 07:05 | -43.49635 | 172.52358 | 128 ft | 37 kts | 40° |
| 2026-05-08 07:05 | -43.49198 | 172.52866 | 123 ft | 124 kts | 40° |
| 2026-05-08 07:06 | -43.48362 | 172.53823 | 268 ft | 177 kts | 40° |
| 2026-05-08 07:06 | -43.47336 | 172.54986 | 715 ft | 205 kts | 40° |
| 2026-05-08 07:06 | -43.46198 | 172.56340 | 1471 ft | 215 kts | 37° |
| 2026-05-08 07:06 | -43.44991 | 172.57381 | 2638 ft | 204 kts | 17° |
| 2026-05-08 07:07 | -43.43609 | 172.58018 | 3201 ft | 218 kts | 10° |
| 2026-05-08 07:07 | -43.42093 | 172.58630 | 3663 ft | 233 kts | 11° |
| 2026-05-08 07:07 | -43.40533 | 172.59401 | 4291 ft | 242 kts | 14° |
| 2026-05-08 07:07 | -43.38990 | 172.60313 | 5133 ft | 241 kts | 15° |
| 2026-05-08 07:08 | -43.37463 | 172.61297 | 5919 ft | 242 kts | 16° |
| 2026-05-08 07:08 | -43.35940 | 172.62303 | 6678 ft | 243 kts | 16° |
| 2026-05-08 07:08 | -43.34419 | 172.63311 | 7472 ft | 243 kts | 15° |
| 2026-05-08 07:08 | -43.32918 | 172.64286 | 8291 ft | 239 kts | 13° |
| 2026-05-08 07:09 | -43.31358 | 172.65056 | 9088 ft | 237 kts | 8° |
| 2026-05-08 07:09 | -43.29773 | 172.65696 | 9800 ft | 237 kts | 7° |
| 2026-05-08 07:09 | -43.28168 | 172.66326 | 10360 ft | 247 kts | 8° |
| 2026-05-08 07:09 | -43.26466 | 172.67010 | 10529 ft | 269 kts | 9° |
| 2026-05-08 07:10 | -43.24610 | 172.67795 | 10751 ft | 287 kts | 10° |
| 2026-05-08 07:10 | -43.22683 | 172.68650 | 11326 ft | 292 kts | 11° |
| 2026-05-08 07:10 | -43.20728 | 172.69531 | 11923 ft | 297 kts | 11° |
| 2026-05-08 07:10 | -43.18755 | 172.70419 | 12567 ft | 300 kts | 11° |
| 2026-05-08 07:11 | -43.16761 | 172.71312 | 13216 ft | 303 kts | 11° |
| 2026-05-08 07:11 | -43.14767 | 172.72199 | 13717 ft | 307 kts | 11° |
| 2026-05-08 07:11 | -43.12720 | 172.73108 | 14287 ft | 310 kts | 11° |
| 2026-05-08 07:11 | -43.10677 | 172.74013 | 14856 ft | 313 kts | 11° |
| 2026-05-08 07:12 | -43.08578 | 172.74943 | 15392 ft | 317 kts | 11° |
| 2026-05-08 07:12 | -43.06467 | 172.75876 | 15939 ft | 320 kts | 11° |
| 2026-05-08 07:12 | -43.04326 | 172.76822 | 16464 ft | 324 kts | 11° |
| 2026-05-08 07:12 | -43.02164 | 172.77777 | 17008 ft | 328 kts | 11° |
| 2026-05-08 07:13 | -42.99978 | 172.78744 | 17557 ft | 331 kts | 11° |
| 2026-05-08 07:13 | -42.97775 | 172.79717 | 18037 ft | 334 kts | 11° |
| 2026-05-08 07:13 | -42.95548 | 172.80700 | 18531 ft | 336 kts | 11° |
| 2026-05-08 07:13 | -42.93338 | 172.81673 | 18993 ft | 339 kts | 11° |
| 2026-05-08 07:14 | -42.91078 | 172.82667 | 19469 ft | 342 kts | 11° |
| 2026-05-08 07:14 | -42.88809 | 172.83665 | 19981 ft | 344 kts | 11° |
| 2026-05-08 07:14 | -42.86517 | 172.84697 | 20447 ft | 349 kts | 13° |
| 2026-05-08 07:14 | -42.84233 | 172.85866 | 20959 ft | 353 kts | 14° |
| 2026-05-08 07:15 | -42.81933 | 172.87097 | 21463 ft | 356 kts | 15° |
| 2026-05-08 07:15 | -42.79610 | 172.88338 | 21955 ft | 359 kts | 15° |
| 2026-05-08 07:15 | -42.77292 | 172.89560 | 22444 ft | 362 kts | 15° |
| 2026-05-08 07:15 | -42.74926 | 172.90792 | 22933 ft | 365 kts | 15° |
| 2026-05-08 07:16 | -42.72538 | 172.92027 | 23366 ft | 368 kts | 15° |
| 2026-05-08 07:16 | -42.70128 | 172.93270 | 23827 ft | 370 kts | 15° |
| 2026-05-08 07:16 | -42.67715 | 172.94512 | 24271 ft | 372 kts | 15° |
| 2026-05-08 07:16 | -42.65279 | 172.95765 | 24703 ft | 374 kts | 15° |
| 2026-05-08 07:17 | -42.62831 | 172.97024 | 25142 ft | 377 kts | 15° |
| 2026-05-08 07:17 | -42.60396 | 172.98279 | 25552 ft | 379 kts | 17° |
| 2026-05-08 07:17 | -42.57921 | 172.99571 | 25978 ft | 381 kts | 16° |
| 2026-05-08 07:17 | -42.55429 | 173.00846 | 26387 ft | 383 kts | 16° |
| 2026-05-08 07:18 | -42.52911 | 173.02125 | 26782 ft | 386 kts | 16° |
| 2026-05-08 07:18 | -42.50396 | 173.03409 | 27281 ft | 386 kts | 16° |
| 2026-05-08 07:18 | -42.47892 | 173.04684 | 27617 ft | 390 kts | 17° |
| 2026-05-08 07:18 | -42.45336 | 173.05985 | 28021 ft | 393 kts | 17° |
| 2026-05-08 07:19 | -42.42770 | 173.07298 | 28461 ft | 395 kts | 17° |
| 2026-05-08 07:19 | -42.40190 | 173.08618 | 28846 ft | 398 kts | 17° |
| 2026-05-08 07:19 | -42.37635 | 173.09923 | 29228 ft | 400 kts | 18° |
| 2026-05-08 07:19 | -42.34983 | 173.11276 | 29476 ft | 402 kts | 18° |
| 2026-05-08 07:20 | -42.32361 | 173.12612 | 29832 ft | 402 kts | 18° |
| 2026-05-08 07:20 | -42.29728 | 173.13955 | 30227 ft | 404 kts | 18° |
| 2026-05-08 07:20 | -42.27084 | 173.15301 | 30587 ft | 407 kts | 17° |
| 2026-05-08 07:20 | -42.24427 | 173.16649 | 30947 ft | 408 kts | 17° |
| 2026-05-08 07:21 | -42.21764 | 173.18000 | 31328 ft | 410 kts | 17° |
| 2026-05-08 07:21 | -42.19122 | 173.19341 | 31670 ft | 411 kts | 17° |
| 2026-05-08 07:21 | -42.16406 | 173.20719 | 32024 ft | 412 kts | 17° |
| 2026-05-08 07:21 | -42.13719 | 173.22081 | 32299 ft | 413 kts | 17° |
| 2026-05-08 07:22 | -42.11055 | 173.23429 | 32600 ft | 414 kts | 17° |
| 2026-05-08 07:22 | -42.08351 | 173.24794 | 32858 ft | 414 kts | 17° |
| 2026-05-08 07:22 | -42.05654 | 173.26154 | 33129 ft | 413 kts | 17° |
| 2026-05-08 07:22 | -42.02960 | 173.27517 | 33438 ft | 411 kts | 16° |
| 2026-05-08 07:23 | -42.00280 | 173.28872 | 33720 ft | 410 kts | 16° |
| 2026-05-08 07:23 | -41.97645 | 173.30200 | 33936 ft | 410 kts | 15° |
| 2026-05-08 07:23 | -41.94970 | 173.31544 | 34135 ft | 411 kts | 15° |
| 2026-05-08 07:23 | -41.92296 | 173.32886 | 34303 ft | 410 kts | 15° |
| 2026-05-08 07:24 | -41.89613 | 173.34233 | 34521 ft | 410 kts | 15° |
| 2026-05-08 07:24 | -41.86931 | 173.35578 | 34666 ft | 413 kts | 15° |
| 2026-05-08 07:24 | -41.84238 | 173.36928 | 34851 ft | 413 kts | 15° |
| 2026-05-08 07:24 | -41.81539 | 173.38280 | 35030 ft | 414 kts | 15° |
| 2026-05-08 07:25 | -41.78831 | 173.39636 | 35237 ft | 415 kts | 15° |
| 2026-05-08 07:25 | -41.76120 | 173.40990 | 35419 ft | 416 kts | 15° |
| 2026-05-08 07:25 | -41.71905 | 173.43096 | 35761 ft | 415 kts | 14° |
| 2026-05-08 07:26 | -41.69129 | 173.44485 | 35934 ft | 416 kts | 14° |
| 2026-05-08 07:26 | -41.66419 | 173.45832 | 36094 ft | 415 kts | 14° |
| 2026-05-08 07:26 | -41.63743 | 173.47159 | 36258 ft | 416 kts | 14° |
| 2026-05-08 07:26 | -41.61023 | 173.48508 | 36424 ft | 417 kts | 14° |
| 2026-05-08 07:27 | -41.58292 | 173.49862 | 36595 ft | 417 kts | 14° |
| 2026-05-08 07:27 | -41.55565 | 173.51213 | 36756 ft | 418 kts | 14° |
| 2026-05-08 07:27 | -41.52833 | 173.52565 | 36896 ft | 419 kts | 14° |
| 2026-05-08 07:27 | -41.50098 | 173.53915 | 37062 ft | 419 kts | 14° |
| 2026-05-08 07:28 | -41.47371 | 173.55264 | 37213 ft | 419 kts | 14° |
| 2026-05-08 07:28 | -41.44629 | 173.56621 | 37383 ft | 419 kts | 13° |
| 2026-05-08 07:28 | -41.41911 | 173.57962 | 37493 ft | 420 kts | 13° |
| 2026-05-08 07:28 | -41.39164 | 173.59318 | 37680 ft | 420 kts | 13° |
| 2026-05-08 07:29 | -41.36412 | 173.60674 | 37807 ft | 421 kts | 13° |
| 2026-05-08 07:29 | -41.33658 | 173.62029 | 38013 ft | 420 kts | 13° |
| 2026-05-08 07:29 | -41.30908 | 173.63381 | 38092 ft | 421 kts | 13° |
| 2026-05-08 07:30 | -41.25417 | 173.66074 | 38301 ft | 423 kts | 13° |
| 2026-05-08 07:30 | -41.22638 | 173.67437 | 38402 ft | 425 kts | 13° |
| 2026-05-08 07:30 | -41.19853 | 173.68803 | 38549 ft | 425 kts | 13° |
| 2026-05-08 07:31 | -41.14349 | 173.71499 | 38619 ft | 423 kts | 13° |
| 2026-05-08 07:31 | -41.08812 | 173.74199 | 38620 ft | 424 kts | 13° |
| 2026-05-08 07:32 | -41.03280 | 173.76900 | 38628 ft | 421 kts | 13° |
| 2026-05-08 07:32 | -40.97803 | 173.79560 | 38635 ft | 421 kts | 13° |
| 2026-05-08 07:33 | -40.92289 | 173.82239 | 38638 ft | 420 kts | 13° |
| 2026-05-08 07:33 | -40.86802 | 173.84898 | 38635 ft | 419 kts | 13° |
| 2026-05-08 07:34 | -40.81353 | 173.87536 | 38630 ft | 419 kts | 13° |
| 2026-05-08 07:34 | -40.75865 | 173.90188 | 38638 ft | 419 kts | 13° |
| 2026-05-08 07:35 | -40.70374 | 173.92834 | 38637 ft | 419 kts | 13° |
| 2026-05-08 07:35 | -40.64885 | 173.95474 | 38642 ft | 420 kts | 13° |
| 2026-05-08 07:36 | -40.60311 | 173.97671 | 38648 ft | 420 kts | 13° |
| 2026-05-08 07:36 | -40.54847 | 174.00293 | 38647 ft | 420 kts | 13° |
| 2026-05-08 07:37 | -40.49351 | 174.02924 | 38656 ft | 420 kts | 13° |
| 2026-05-08 07:37 | -40.43847 | 174.05554 | 38660 ft | 420 kts | 13° |
| 2026-05-08 07:38 | -40.38344 | 174.08180 | 38668 ft | 421 kts | 13° |
| 2026-05-08 07:38 | -40.32872 | 174.10787 | 38666 ft | 421 kts | 13° |
| 2026-05-08 07:39 | -40.27363 | 174.13409 | 38673 ft | 421 kts | 13° |
| 2026-05-08 07:39 | -40.21836 | 174.16036 | 38668 ft | 422 kts | 13° |
| 2026-05-08 07:40 | -40.16303 | 174.18662 | 38673 ft | 423 kts | 13° |
| 2026-05-08 07:40 | -40.10799 | 174.21269 | 38672 ft | 423 kts | 13° |
| 2026-05-08 07:41 | -40.05249 | 174.23895 | 38674 ft | 424 kts | 13° |
| 2026-05-08 07:41 | -39.99679 | 174.26524 | 38676 ft | 425 kts | 13° |
| 2026-05-08 07:42 | -39.94101 | 174.29149 | 38684 ft | 426 kts | 13° |
| 2026-05-08 07:42 | -39.88546 | 174.31757 | 38688 ft | 427 kts | 13° |
| 2026-05-08 07:43 | -39.82947 | 174.34382 | 38688 ft | 428 kts | 13° |
| 2026-05-08 07:43 | -39.77332 | 174.37010 | 38695 ft | 429 kts | 13° |
| 2026-05-08 07:44 | -39.71709 | 174.39637 | 38698 ft | 430 kts | 13° |
| 2026-05-08 07:44 | -39.66064 | 174.42270 | 38707 ft | 431 kts | 13° |
| 2026-05-08 07:45 | -39.60402 | 174.44907 | 38711 ft | 433 kts | 13° |
| 2026-05-08 07:45 | -39.54777 | 174.47522 | 38710 ft | 434 kts | 12° |
| 2026-05-08 07:46 | -39.49015 | 174.49962 | 38720 ft | 430 kts | 7° |
| 2026-05-08 07:46 | -39.43159 | 174.51363 | 38738 ft | 426 kts | 1° |
| 2026-05-08 07:47 | -39.37314 | 174.52441 | 38748 ft | 427 kts | 1° |
| 2026-05-08 07:47 | -39.31409 | 174.53560 | 38759 ft | 428 kts | 1° |
| 2026-05-08 07:48 | -39.25498 | 174.54690 | 38769 ft | 429 kts | 2° |
| 2026-05-08 07:48 | -39.19618 | 174.55814 | 38779 ft | 429 kts | 1° |
| 2026-05-08 07:49 | -39.13708 | 174.56938 | 38789 ft | 429 kts | 1° |
| 2026-05-08 07:49 | -39.07806 | 174.58063 | 38781 ft | 426 kts | 1° |
| 2026-05-08 07:50 | -39.01930 | 174.59180 | 38786 ft | 426 kts | 1° |
| 2026-05-08 07:50 | -38.96092 | 174.60288 | 38786 ft | 426 kts | 1° |
| 2026-05-08 07:51 | -38.90229 | 174.61400 | 38793 ft | 426 kts | 1° |
| 2026-05-08 07:51 | -38.84345 | 174.62512 | 38795 ft | 427 kts | 1° |
| 2026-05-08 07:52 | -38.78480 | 174.63621 | 38802 ft | 427 kts | 1° |
| 2026-05-08 07:52 | -38.72583 | 174.64734 | 38588 ft | 426 kts | 1° |
| 2026-05-08 07:52 | -38.69657 | 174.65286 | 38337 ft | 424 kts | 1° |
| 2026-05-08 07:53 | -38.66733 | 174.65835 | 38058 ft | 424 kts | 1° |
| 2026-05-08 07:53 | -38.63811 | 174.66382 | 37772 ft | 423 kts | 2° |
| 2026-05-08 07:53 | -38.60928 | 174.66922 | 37500 ft | 423 kts | 2° |
| 2026-05-08 07:53 | -38.58009 | 174.67469 | 37242 ft | 424 kts | 2° |
| 2026-05-08 07:54 | -38.55087 | 174.68018 | 36970 ft | 424 kts | 2° |
| 2026-05-08 07:54 | -38.52171 | 174.68566 | 36707 ft | 423 kts | 2° |
| 2026-05-08 07:54 | -38.49253 | 174.69113 | 36448 ft | 423 kts | 3° |
| 2026-05-08 07:54 | -38.46340 | 174.69658 | 36188 ft | 423 kts | 3° |
| 2026-05-08 07:55 | -38.43411 | 174.70206 | 35929 ft | 423 kts | 3° |
| 2026-05-08 07:55 | -38.40505 | 174.70750 | 35662 ft | 422 kts | 3° |
| 2026-05-08 07:55 | -38.37629 | 174.71287 | 35085 ft | 423 kts | 4° |
| 2026-05-08 07:55 | -38.34712 | 174.71827 | 34163 ft | 425 kts | 4° |
| 2026-05-08 07:56 | -38.31753 | 174.72373 | 32856 ft | 429 kts | 5° |
| 2026-05-08 07:56 | -38.28764 | 174.72928 | 31290 ft | 437 kts | 5° |
| 2026-05-08 07:56 | -38.25786 | 174.73483 | 30146 ft | 437 kts | 5° |
| 2026-05-08 07:56 | -38.22775 | 174.74047 | 29182 ft | 434 kts | 5° |
| 2026-05-08 07:57 | -38.19811 | 174.74602 | 28485 ft | 427 kts | 5° |
| 2026-05-08 07:57 | -38.16907 | 174.75146 | 28101 ft | 415 kts | 5° |
| 2026-05-08 07:57 | -38.14087 | 174.75674 | 27837 ft | 405 kts | 5° |
| 2026-05-08 07:57 | -38.11301 | 174.76191 | 27270 ft | 405 kts | 5° |
| 2026-05-08 07:58 | -38.08500 | 174.76707 | 26620 ft | 404 kts | 5° |
| 2026-05-08 07:58 | -38.05726 | 174.77219 | 25971 ft | 400 kts | 5° |
| 2026-05-08 07:58 | -38.02980 | 174.77727 | 25295 ft | 397 kts | 5° |
| 2026-05-08 07:58 | -38.00256 | 174.78230 | 24652 ft | 394 kts | 4° |
| 2026-05-08 07:59 | -37.97560 | 174.78728 | 23989 ft | 391 kts | 4° |
| 2026-05-08 07:59 | -37.94883 | 174.79222 | 23337 ft | 388 kts | 4° |
| 2026-05-08 07:59 | -37.92230 | 174.79711 | 22700 ft | 382 kts | 4° |
| 2026-05-08 07:59 | -37.89618 | 174.80197 | 22075 ft | 376 kts | 4° |
| 2026-05-08 08:00 | -37.87048 | 174.80612 | 21444 ft | 366 kts | 0° |
| 2026-05-08 08:00 | -37.84601 | 174.80707 | 20858 ft | 349 kts | 356° |
| 2026-05-08 08:00 | -37.82213 | 174.80721 | 20277 ft | 337 kts | 355° |
| 2026-05-08 08:00 | -37.79788 | 174.80736 | 19711 ft | 358 kts | 355° |
| 2026-05-08 08:01 | -37.77274 | 174.80756 | 19280 ft | 362 kts | 355° |
| 2026-05-08 08:01 | -37.74737 | 174.80787 | 18355 ft | 368 kts | 355° |
| 2026-05-08 08:01 | -37.72216 | 174.80824 | 17676 ft | 363 kts | 355° |
| 2026-05-08 08:01 | -37.69759 | 174.80867 | 17125 ft | 343 kts | 355° |
| 2026-05-08 08:02 | -37.67420 | 174.80907 | 16540 ft | 328 kts | 354° |
| 2026-05-08 08:02 | -37.65165 | 174.80937 | 15966 ft | 324 kts | 354° |
| 2026-05-08 08:02 | -37.62815 | 174.80948 | 15372 ft | 350 kts | 354° |
| 2026-05-08 08:02 | -37.60357 | 174.80967 | 14992 ft | 350 kts | 354° |
| 2026-05-08 08:03 | -37.57960 | 174.81006 | 14885 ft | 338 kts | 354° |
| 2026-05-08 08:03 | -37.55661 | 174.81048 | 14603 ft | 323 kts | 354° |
| 2026-05-08 08:03 | -37.53466 | 174.81085 | 13822 ft | 318 kts | 354° |
| 2026-05-08 08:03 | -37.51290 | 174.81113 | 13281 ft | 307 kts | 353° |
| 2026-05-08 08:04 | -37.49114 | 174.81131 | 12866 ft | 317 kts | 353° |
| 2026-05-08 08:04 | -37.46898 | 174.81151 | 12342 ft | 316 kts | 354° |
| 2026-05-08 08:04 | -37.44729 | 174.81180 | 11837 ft | 307 kts | 354° |
| 2026-05-08 08:04 | -37.42619 | 174.81210 | 11347 ft | 300 kts | 354° |
| 2026-05-08 08:05 | -37.40549 | 174.81240 | 10847 ft | 293 kts | 354° |
| 2026-05-08 08:05 | -37.38567 | 174.81264 | 10400 ft | 285 kts | 354° |
| 2026-05-08 08:05 | -37.36607 | 174.81290 | 10046 ft | 275 kts | 353° |
| 2026-05-08 08:05 | -37.34716 | 174.81313 | 9513 ft | 269 kts | 354° |
| 2026-05-08 08:06 | -37.32856 | 174.81329 | 8994 ft | 264 kts | 354° |
| 2026-05-08 08:06 | -37.31052 | 174.81352 | 8749 ft | 254 kts | 354° |
| 2026-05-08 08:06 | -37.29255 | 174.81373 | 8624 ft | 259 kts | 354° |
| 2026-05-08 08:06 | -37.27541 | 174.81044 | 8503 ft | 245 kts | 335° |
| 2026-05-08 08:07 | -37.26170 | 174.79910 | 8351 ft | 231 kts | 313° |
| 2026-05-08 08:07 | -37.25294 | 174.78232 | 8229 ft | 234 kts | 299° |
| 2026-05-08 08:07 | -37.24544 | 174.76409 | 7961 ft | 235 kts | 300° |
| 2026-05-08 08:07 | -37.23774 | 174.74611 | 7574 ft | 231 kts | 301° |
| 2026-05-08 08:08 | -37.23016 | 174.72882 | 7215 ft | 219 kts | 302° |
| 2026-05-08 08:08 | -37.22297 | 174.71260 | 6880 ft | 206 kts | 302° |
| 2026-05-08 08:08 | -37.21600 | 174.69708 | 6595 ft | 220 kts | 303° |
| 2026-05-08 08:08 | -37.20788 | 174.67924 | 6379 ft | 243 kts | 303° |
| 2026-05-08 08:09 | -37.19959 | 174.66085 | 6331 ft | 238 kts | 303° |
| 2026-05-08 08:09 | -37.19175 | 174.64317 | 5929 ft | 229 kts | 303° |
| 2026-05-08 08:09 | -37.18405 | 174.62580 | 5238 ft | 226 kts | 303° |
| 2026-05-08 08:09 | -37.17649 | 174.60873 | 4634 ft | 218 kts | 304° |
| 2026-05-08 08:10 | -37.16935 | 174.59266 | 4335 ft | 205 kts | 305° |
| 2026-05-08 08:10 | -37.16211 | 174.57785 | 3982 ft | 193 kts | 314° |
| 2026-05-08 08:10 | -37.15196 | 174.56749 | 3815 ft | 192 kts | 333° |
| 2026-05-08 08:10 | -37.13936 | 174.56193 | 3698 ft | 191 kts | 342° |
| 2026-05-08 08:11 | -37.12669 | 174.55718 | 3564 ft | 188 kts | 341° |
| 2026-05-08 08:11 | -37.11418 | 174.55213 | 3413 ft | 190 kts | 340° |
| 2026-05-08 08:11 | -37.10167 | 174.54699 | 3131 ft | 186 kts | 343° |
| 2026-05-08 08:11 | -37.08915 | 174.54712 | 3012 ft | 179 kts | 11° |
| 2026-05-08 08:12 | -37.07904 | 174.55570 | 2929 ft | 182 kts | 37° |
| 2026-05-08 08:12 | -37.07242 | 174.56910 | 2857 ft | 178 kts | 52° |
| 2026-05-08 08:12 | -37.06809 | 174.58301 | 2764 ft | 161 kts | 57° |
| 2026-05-08 08:12 | -37.06457 | 174.59634 | 2707 ft | 164 kts | 57° |
| 2026-05-08 08:13 | -37.06090 | 174.60947 | 2595 ft | 156 kts | 55° |
| 2026-05-08 08:13 | -37.05736 | 174.62211 | 2427 ft | 149 kts | 57° |
| 2026-05-08 08:13 | -37.05422 | 174.63361 | 2266 ft | 139 kts | 52° |
| 2026-05-08 08:13 | -37.05086 | 174.64523 | 2078 ft | 139 kts | 56° |
| 2026-05-08 08:14 | -37.04789 | 174.65642 | 1902 ft | 137 kts | 54° |
| 2026-05-08 08:14 | -37.04478 | 174.66753 | 1730 ft | 133 kts | 55° |
| 2026-05-08 08:14 | -37.04166 | 174.67857 | 1551 ft | 131 kts | 57° |
| 2026-05-08 08:14 | -37.03874 | 174.68932 | 1376 ft | 134 kts | 56° |
| 2026-05-08 08:15 | -37.03577 | 174.70008 | 1205 ft | 131 kts | 57° |
| 2026-05-08 08:15 | -37.03262 | 174.71123 | 1016 ft | 136 kts | 59° |
| 2026-05-08 08:15 | -37.02953 | 174.72262 | 821 ft | 137 kts | 62° |
| 2026-05-08 08:15 | -37.02646 | 174.73376 | 661 ft | 136 kts | 62° |
| 2026-05-08 08:16 | -37.02356 | 174.74442 | 494 ft | 124 kts | 65° |
| 2026-05-08 08:16 | -37.02073 | 174.75513 | 325 ft | 135 kts | 64° |
| 2026-05-08 08:16 | -37.01779 | 174.76586 | 143 ft | 128 kts | 64° |
| 2026-05-08 08:16 | -37.01482 | 174.77655 | 38 ft | 127 kts | 63° |
| 2026-05-08 08:17 | -37.01267 | 174.78392 | 31 ft | 68 kts | 71° |
| 2026-05-08 08:17 | -37.01168 | 174.78748 | 31 ft | 31 kts | 68° |
| 2026-05-08 08:17 | -37.01065 | 174.78956 | 31 ft | 18 kts | 48° |
| 2026-05-08 08:17 | -37.01030 | 174.79000 | 31 ft | 0 kts | 44° |
| 2026-05-08 08:18 | -37.01008 | 174.79025 | 31 ft | 8 kts | 43° |
| 2026-05-08 08:18 | -37.00956 | 174.79081 | 31 ft | 11 kts | 41° |
| 2026-05-08 08:19 | -37.00877 | 174.79123 | 31 ft | 8 kts | 6° |
| 2026-05-08 08:19 | -37.00844 | 174.79112 | 31 ft | 7 kts | 345° |
| 2026-05-08 08:19 | -37.00816 | 174.79072 | 31 ft | 6 kts | 294° |